createdAt,value
2022-08-23T00:00:43.604Z,1011.10
2022-08-23T00:01:43.114Z,1011.08
2022-08-23T00:02:42.816Z,1011.05
2022-08-23T00:03:42.663Z,1011.04
2022-08-23T00:05:07.701Z,1011.05
2022-08-23T00:05:43.599Z,1011.02
2022-08-23T00:06:42.574Z,1011.03
2022-08-23T00:07:42.534Z,1011.02
2022-08-23T00:08:44.088Z,1010.97
2022-08-23T00:09:43.487Z,1010.98
2022-08-23T00:10:42.433Z,1010.97
2022-08-23T00:11:42.426Z,1010.99
2022-08-23T00:12:42.509Z,1010.98
2022-08-23T00:13:48.301Z,1010.96
2022-08-23T00:14:45.377Z,1010.98
2022-08-23T00:15:42.420Z,1010.95
2022-08-23T00:16:42.442Z,1010.95
2022-08-23T00:17:42.402Z,1010.94
2022-08-23T00:18:42.397Z,1010.95
2022-08-23T00:19:43.403Z,1010.92
2022-08-23T00:20:42.359Z,1010.94
2022-08-23T00:21:42.298Z,1010.93
2022-08-23T00:22:42.387Z,1010.92
2022-08-23T00:23:42.331Z,1010.91
2022-08-23T00:24:42.258Z,1010.85
2022-08-23T00:25:42.475Z,1010.88
2022-08-23T00:26:42.241Z,1010.89
2022-08-23T00:27:42.241Z,1010.86
2022-08-23T00:28:42.400Z,1010.88
2022-08-23T00:29:42.441Z,1010.91
2022-08-23T00:30:42.212Z,1010.92
2022-08-23T00:31:42.188Z,1010.89
2022-08-23T00:32:42.689Z,1010.85
2022-08-23T00:33:42.191Z,1010.84
2022-08-23T00:34:42.161Z,1010.84
2022-08-23T00:35:42.142Z,1010.86
2022-08-23T00:36:42.146Z,1010.82
2022-08-23T00:37:42.144Z,1010.83
2022-08-23T00:38:42.202Z,1010.82
2022-08-23T00:39:43.806Z,1010.81
2022-08-23T00:40:43.213Z,1010.83
2022-08-23T00:41:42.086Z,1010.87
2022-08-23T00:42:42.105Z,1010.89
2022-08-23T00:43:42.035Z,1010.85
2022-08-23T00:44:42.014Z,1010.88
2022-08-23T00:45:41.992Z,1010.90
2022-08-23T00:46:41.983Z,1010.93
2022-08-23T00:47:43.098Z,1010.92
2022-08-23T00:48:42.057Z,1010.99
2022-08-23T00:49:41.938Z,1011.03
2022-08-23T00:50:41.998Z,1011.06
2022-08-23T00:51:52.598Z,1011.02
2022-08-23T00:52:42.973Z,1011.05
2022-08-23T00:53:41.988Z,1011.04
2022-08-23T00:54:41.968Z,1011.09
2022-08-23T00:55:41.869Z,1011.05
2022-08-23T00:56:41.884Z,1011.10
2022-08-23T00:57:41.888Z,1011.06
2022-08-23T00:58:41.861Z,1011.10
2022-08-23T00:59:42.032Z,1011.06
2022-08-23T01:00:41.781Z,1011.08
2022-08-23T01:01:41.855Z,1011.07
2022-08-23T01:02:41.872Z,1011.07
2022-08-23T01:03:42.126Z,1011.06
2022-08-23T01:04:42.982Z,1011.03
2022-08-23T01:05:42.131Z,1011.05
2022-08-23T01:06:41.740Z,1011.04
2022-08-23T01:07:41.743Z,1011.04
2022-08-23T01:08:43.154Z,1011.05
2022-08-23T01:09:41.772Z,1011.10
2022-08-23T01:10:41.700Z,1011.09
2022-08-23T01:11:41.720Z,1011.06
2022-08-23T01:12:41.645Z,1011.10
2022-08-23T01:13:41.725Z,1011.07
2022-08-23T01:14:41.629Z,1011.05
2022-08-23T01:15:41.592Z,1011.02
2022-08-23T01:16:41.665Z,1011.06
2022-08-23T01:17:42.348Z,1011.05
2022-08-23T01:18:41.628Z,1011.07
2022-08-23T01:19:41.645Z,1011.00
2022-08-23T01:20:41.544Z,1010.99
2022-08-23T01:21:41.596Z,1010.99
2022-08-23T01:22:41.619Z,1011.00
2022-08-23T01:23:41.548Z,1011.01
2022-08-23T01:24:59.918Z,1010.99
2022-08-23T01:25:42.478Z,1011.05
2022-08-23T01:26:41.512Z,1011.02
2022-08-23T01:27:41.527Z,1011.03
2022-08-23T01:28:45.798Z,1011.01
2022-08-23T01:29:41.475Z,1010.99
2022-08-23T01:30:41.460Z,1011.02
2022-08-23T01:31:41.448Z,1011.01
2022-08-23T01:32:41.376Z,1010.98
2022-08-23T01:33:41.387Z,1010.97
2022-08-23T01:34:45.826Z,1010.96
2022-08-23T01:35:42.354Z,1010.93
2022-08-23T01:36:41.333Z,1010.91
2022-08-23T01:37:41.367Z,1010.94
2022-08-23T01:38:41.903Z,1010.92
2022-08-23T01:39:41.326Z,1010.96
2022-08-23T01:40:41.352Z,1010.96
2022-08-23T01:41:41.280Z,1010.91
2022-08-23T01:42:41.273Z,1010.95
2022-08-23T01:43:42.291Z,1010.93
2022-08-23T01:44:41.265Z,1010.93
2022-08-23T01:45:41.279Z,1010.95
2022-08-23T01:46:41.225Z,1010.96
2022-08-23T01:47:41.168Z,1010.97
2022-08-23T01:48:41.413Z,1010.97
2022-08-23T01:49:41.168Z,1010.97
2022-08-23T01:50:41.136Z,1010.96
2022-08-23T01:51:41.146Z,1010.94
2022-08-23T01:52:46.560Z,1010.92
2022-08-23T01:53:42.104Z,1010.91
2022-08-23T01:54:41.148Z,1010.91
2022-08-23T01:55:41.104Z,1010.97
2022-08-23T01:56:41.125Z,1010.97
2022-08-23T01:57:41.076Z,1010.96
2022-08-23T01:58:41.217Z,1010.97
2022-08-23T01:59:41.092Z,1010.99
2022-08-23T02:00:41.233Z,1011.03
2022-08-23T02:01:41.068Z,1011.05
2022-08-23T02:02:41.134Z,1011.03
2022-08-23T02:03:41.009Z,1011.03
2022-08-23T02:04:40.993Z,1011.10
2022-08-23T02:05:40.968Z,1011.05
2022-08-23T02:06:40.971Z,1011.10
2022-08-23T02:07:40.934Z,1011.08
2022-08-23T02:08:42.406Z,1011.04
2022-08-23T02:09:40.936Z,1011.06
2022-08-23T02:10:41.013Z,1011.08
2022-08-23T02:11:40.986Z,1011.03
2022-08-23T02:12:40.889Z,1011.10
2022-08-23T02:13:40.856Z,1011.06
2022-08-23T02:14:40.831Z,1011.11
2022-08-23T02:15:40.848Z,1011.08
2022-08-23T02:16:40.798Z,1011.06
2022-08-23T02:17:40.868Z,1011.07
2022-08-23T02:18:41.203Z,1011.09
2022-08-23T02:19:40.841Z,1011.08
2022-08-23T02:20:41.434Z,1011.12
2022-08-23T02:21:40.804Z,1011.07
2022-08-23T02:22:40.801Z,1011.10
2022-08-23T02:23:40.715Z,1011.07
2022-08-23T02:24:40.732Z,1011.09
2022-08-23T02:25:40.754Z,1011.07
2022-08-23T02:26:40.714Z,1011.14
2022-08-23T02:27:43.857Z,1011.10
2022-08-23T02:28:41.556Z,1011.09
2022-08-23T02:29:40.644Z,1011.09
2022-08-23T02:30:40.777Z,1011.08
2022-08-23T02:31:40.916Z,1011.10
2022-08-23T02:32:40.645Z,1011.09
2022-08-23T02:33:40.688Z,1011.10
2022-08-23T02:34:40.658Z,1011.07
2022-08-23T02:35:40.597Z,1011.11
2022-08-23T02:36:40.547Z,1011.08
2022-08-23T02:37:40.518Z,1011.07
2022-08-23T02:38:40.705Z,1011.07
2022-08-23T02:39:40.537Z,1011.13
2022-08-23T02:40:40.510Z,1011.11
2022-08-23T02:41:41.968Z,1011.13
2022-08-23T02:42:40.458Z,1011.10
2022-08-23T02:43:41.107Z,1011.14
2022-08-23T02:44:40.459Z,1011.14
2022-08-23T02:45:41.898Z,1011.17
2022-08-23T02:46:40.515Z,1011.15
2022-08-23T02:47:40.449Z,1011.14
2022-08-23T02:48:40.420Z,1011.13
2022-08-23T02:49:40.381Z,1011.11
2022-08-23T02:50:40.378Z,1011.09
2022-08-23T02:51:41.400Z,1011.09
2022-08-23T02:52:41.297Z,1011.06
2022-08-23T02:53:40.573Z,1011.07
2022-08-23T02:54:41.109Z,1011.05
2022-08-23T02:55:40.910Z,1011.12
2022-08-23T02:56:40.315Z,1011.21
2022-08-23T02:57:40.365Z,1011.19
2022-08-23T02:58:41.234Z,1011.18
2022-08-23T02:59:40.357Z,1011.21
2022-08-23T03:00:40.446Z,1011.16
2022-08-23T03:01:40.227Z,1011.20
2022-08-23T03:02:40.334Z,1011.20
2022-08-23T03:03:40.212Z,1011.18
2022-08-23T03:04:40.200Z,1011.19
2022-08-23T03:05:40.272Z,1011.16
2022-08-23T03:06:40.156Z,1011.18
2022-08-23T03:07:40.255Z,1011.20
2022-08-23T03:08:41.605Z,1011.17
2022-08-23T03:09:40.114Z,1011.21
2022-08-23T03:10:40.166Z,1011.22
2022-08-23T03:11:40.168Z,1011.24
2022-08-23T03:12:40.631Z,1011.24
2022-08-23T03:13:40.096Z,1011.26
2022-08-23T03:14:40.047Z,1011.33
2022-08-23T03:15:40.090Z,1011.30
2022-08-23T03:16:40.118Z,1011.32
2022-08-23T03:17:40.029Z,1011.33
2022-08-23T03:18:40.850Z,1011.35
2022-08-23T03:19:40.080Z,1011.35
2022-08-23T03:20:39.988Z,1011.34
2022-08-23T03:21:39.967Z,1011.36
2022-08-23T03:22:39.950Z,1011.36
2022-08-23T03:23:40.970Z,1011.39
2022-08-23T03:24:39.951Z,1011.36
2022-08-23T03:25:39.939Z,1011.41
2022-08-23T03:26:39.921Z,1011.41
2022-08-23T03:27:44.957Z,1011.39
2022-08-23T03:28:40.934Z,1011.37
2022-08-23T03:29:39.881Z,1011.42
2022-08-23T03:30:39.842Z,1011.43
2022-08-23T03:31:39.838Z,1011.43
2022-08-23T03:32:39.810Z,1011.45
2022-08-23T03:33:42.955Z,1011.48
2022-08-23T03:34:39.814Z,1011.43
2022-08-23T03:35:39.785Z,1011.45
2022-08-23T03:36:39.775Z,1011.43
2022-08-23T03:37:40.566Z,1011.45
2022-08-23T03:38:39.883Z,1011.43
2022-08-23T03:39:39.777Z,1011.45
2022-08-23T03:40:39.743Z,1011.45
2022-08-23T03:41:39.734Z,1011.44
2022-08-23T03:42:39.736Z,1011.47
2022-08-23T03:43:39.704Z,1011.50
2022-08-23T03:44:39.648Z,1011.47
2022-08-23T03:45:39.700Z,1011.50
2022-08-23T03:46:39.712Z,1011.49
2022-08-23T03:47:39.659Z,1011.53
2022-08-23T03:48:39.617Z,1011.48
2022-08-23T03:49:40.092Z,1011.50
2022-08-23T03:50:39.587Z,1011.45
2022-08-23T03:51:39.569Z,1011.44
2022-08-23T03:52:39.630Z,1011.46
2022-08-23T03:53:39.538Z,1011.50
2022-08-23T03:54:39.527Z,1011.44
2022-08-23T03:55:42.647Z,1011.47
2022-08-23T03:56:39.650Z,1011.43
2022-08-23T03:57:39.518Z,1011.45
2022-08-23T03:58:39.527Z,1011.44
2022-08-23T03:59:39.466Z,1011.46
2022-08-23T04:00:39.489Z,1011.51
2022-08-23T04:01:39.499Z,1011.51
2022-08-23T04:02:39.432Z,1011.51
2022-08-23T04:03:40.610Z,1011.53
2022-08-23T04:04:39.442Z,1011.55
2022-08-23T04:05:39.379Z,1011.55
2022-08-23T04:06:39.384Z,1011.58
2022-08-23T04:07:39.355Z,1011.59
2022-08-23T04:08:40.151Z,1011.57
2022-08-23T04:09:39.362Z,1011.59
2022-08-23T04:10:39.580Z,1011.58
2022-08-23T04:11:39.338Z,1011.59
2022-08-23T04:12:39.314Z,1011.64
2022-08-23T04:13:39.362Z,1011.60
2022-08-23T04:14:39.303Z,1011.64
2022-08-23T04:15:39.269Z,1011.61
2022-08-23T04:16:39.255Z,1011.65
2022-08-23T04:17:40.580Z,1011.63
2022-08-23T04:18:40.215Z,1011.65
2022-08-23T04:19:39.221Z,1011.65
2022-08-23T04:20:39.235Z,1011.66
2022-08-23T04:21:39.193Z,1011.65
2022-08-23T04:22:39.165Z,1011.69
2022-08-23T04:23:39.206Z,1011.69
2022-08-23T04:24:39.162Z,1011.69
2022-08-23T04:25:39.137Z,1011.71
2022-08-23T04:26:39.149Z,1011.71
2022-08-23T04:27:40.376Z,1011.69
2022-08-23T04:28:40.311Z,1011.67
2022-08-23T04:29:39.330Z,1011.62
2022-08-23T04:30:39.085Z,1011.66
2022-08-23T04:31:39.057Z,1011.64
2022-08-23T04:32:39.058Z,1011.68
2022-08-23T04:33:40.157Z,1011.65
2022-08-23T04:34:39.199Z,1011.72
2022-08-23T04:35:39.053Z,1011.73
2022-08-23T04:36:39.007Z,1011.73
2022-08-23T04:37:39.045Z,1011.70
2022-08-23T04:38:38.978Z,1011.69
2022-08-23T04:39:39.017Z,1011.70
2022-08-23T04:40:38.962Z,1011.74
2022-08-23T04:41:38.973Z,1011.75
2022-08-23T04:42:38.910Z,1011.73
2022-08-23T04:43:38.892Z,1011.73
2022-08-23T04:44:38.912Z,1011.79
2022-08-23T04:45:38.888Z,1011.77
2022-08-23T04:46:38.861Z,1011.73
2022-08-23T04:47:38.913Z,1011.74
2022-08-23T04:48:38.851Z,1011.78
2022-08-23T04:49:38.860Z,1011.75
2022-08-23T04:50:38.883Z,1011.79
2022-08-23T04:51:38.819Z,1011.81
2022-08-23T04:52:38.779Z,1011.81
2022-08-23T04:53:38.761Z,1011.82
2022-08-23T04:54:38.822Z,1011.83
2022-08-23T04:55:38.837Z,1011.80
2022-08-23T04:56:38.730Z,1011.83
2022-08-23T04:57:38.717Z,1011.88
2022-08-23T04:58:38.978Z,1011.85
2022-08-23T04:59:38.793Z,1011.86
2022-08-23T05:00:38.750Z,1011.89
2022-08-23T05:01:38.673Z,1011.90
2022-08-23T05:02:38.715Z,1011.91
2022-08-23T05:03:38.647Z,1011.95
2022-08-23T05:04:38.643Z,1011.94
2022-08-23T05:05:39.794Z,1011.93
2022-08-23T05:06:38.635Z,1011.94
2022-08-23T05:07:42.560Z,1011.91
2022-08-23T05:08:38.607Z,1011.93
2022-08-23T05:09:38.628Z,1011.93
2022-08-23T05:10:38.571Z,1011.87
2022-08-23T05:11:38.571Z,1011.85
2022-08-23T05:12:38.510Z,1011.90
2022-08-23T05:13:38.507Z,1011.92
2022-08-23T05:14:38.535Z,1011.93
2022-08-23T05:15:38.680Z,1011.94
2022-08-23T05:16:38.490Z,1011.99
2022-08-23T05:17:38.518Z,1011.96
2022-08-23T05:18:39.559Z,1011.98
2022-08-23T05:19:44.228Z,1011.99
2022-08-23T05:20:39.509Z,1012.00
2022-08-23T05:21:38.445Z,1011.99
2022-08-23T05:22:38.411Z,1012.03
2022-08-23T05:23:38.390Z,1012.06
2022-08-23T05:24:38.382Z,1012.06
2022-08-23T05:25:38.375Z,1012.04
2022-08-23T05:26:38.338Z,1012.08
2022-08-23T05:27:38.351Z,1012.11
2022-08-23T05:28:38.399Z,1012.16
2022-08-23T05:29:38.340Z,1012.13
2022-08-23T05:30:38.379Z,1012.15
2022-08-23T05:31:38.321Z,1012.17
2022-08-23T05:32:39.257Z,1012.17
2022-08-23T05:33:38.263Z,1012.15
2022-08-23T05:34:38.263Z,1012.15
2022-08-23T05:35:38.303Z,1012.15
2022-08-23T05:36:38.303Z,1012.16
2022-08-23T05:37:39.255Z,1012.20
2022-08-23T05:38:38.204Z,1012.21
2022-08-23T05:39:38.364Z,1012.25
2022-08-23T05:40:38.233Z,1012.27
2022-08-23T05:41:38.658Z,1012.26
2022-08-23T05:42:38.202Z,1012.24
2022-08-23T05:43:38.167Z,1012.23
2022-08-23T05:44:38.157Z,1012.21
2022-08-23T05:45:38.145Z,1012.22
2022-08-23T05:46:38.130Z,1012.22
2022-08-23T05:47:38.207Z,1012.22
2022-08-23T05:48:38.072Z,1012.18
2022-08-23T05:49:38.086Z,1012.20
2022-08-23T05:50:38.026Z,1012.22
2022-08-23T05:51:38.184Z,1012.27
2022-08-23T05:52:38.027Z,1012.25
2022-08-23T05:53:37.997Z,1012.26
2022-08-23T05:54:38.010Z,1012.28
2022-08-23T05:55:37.977Z,1012.26
2022-08-23T05:56:37.965Z,1012.27
2022-08-23T05:57:38.015Z,1012.32
2022-08-23T05:58:37.965Z,1012.32
2022-08-23T05:59:37.959Z,1012.32
2022-08-23T06:00:40.782Z,1012.32
2022-08-23T06:01:37.899Z,1012.36
2022-08-23T06:02:37.876Z,1012.38
2022-08-23T06:03:37.863Z,1012.37
2022-08-23T06:04:37.871Z,1012.37
2022-08-23T06:05:37.836Z,1012.38
2022-08-23T06:06:37.958Z,1012.34
2022-08-23T06:07:37.823Z,1012.37
2022-08-23T06:08:37.792Z,1012.36
2022-08-23T06:09:37.834Z,1012.37
2022-08-23T06:10:41.719Z,1012.36
2022-08-23T06:11:37.781Z,1012.35
2022-08-23T06:12:37.758Z,1012.30
2022-08-23T06:13:39.194Z,1012.32
2022-08-23T06:14:37.752Z,1012.37
2022-08-23T06:15:37.734Z,1012.35
2022-08-23T06:16:37.722Z,1012.40
2022-08-23T06:17:37.703Z,1012.44
2022-08-23T06:18:38.931Z,1012.45
2022-08-23T06:19:37.683Z,1012.48
2022-08-23T06:20:37.657Z,1012.48
2022-08-23T06:21:37.727Z,1012.49
2022-08-23T06:22:37.687Z,1012.55
2022-08-23T06:23:37.594Z,1012.58
2022-08-23T06:24:37.578Z,1012.57
2022-08-23T06:25:37.570Z,1012.55
2022-08-23T06:26:37.623Z,1012.57
2022-08-23T06:27:37.666Z,1012.53
2022-08-23T06:28:50.440Z,1012.55
2022-08-23T06:29:38.523Z,1012.51
2022-08-23T06:30:39.722Z,1012.59
2022-08-23T06:31:37.499Z,1012.56
2022-08-23T06:32:37.517Z,1012.58
2022-08-23T06:33:37.528Z,1012.58
2022-08-23T06:34:37.458Z,1012.57
2022-08-23T06:35:39.890Z,1012.62
2022-08-23T06:36:37.433Z,1012.62
2022-08-23T06:37:37.453Z,1012.63
2022-08-23T06:38:37.444Z,1012.63
2022-08-23T06:39:37.876Z,1012.65
2022-08-23T06:40:37.390Z,1012.67
2022-08-23T06:41:38.263Z,1012.60
2022-08-23T06:42:38.967Z,1012.61
2022-08-23T06:43:38.578Z,1012.66
2022-08-23T06:44:37.324Z,1012.65
2022-08-23T06:45:37.320Z,1012.63
2022-08-23T06:46:37.360Z,1012.64
2022-08-23T06:47:37.410Z,1012.63
2022-08-23T06:48:38.102Z,1012.66
2022-08-23T06:49:37.396Z,1012.65
2022-08-23T06:50:37.436Z,1012.66
2022-08-23T06:51:37.446Z,1012.64
2022-08-23T06:52:37.222Z,1012.63
2022-08-23T06:53:37.241Z,1012.60
2022-08-23T06:54:37.433Z,1012.62
2022-08-23T06:55:37.232Z,1012.63
2022-08-23T06:56:38.355Z,1012.63
2022-08-23T06:57:37.180Z,1012.64
2022-08-23T06:58:45.790Z,1012.64
2022-08-23T06:59:37.163Z,1012.64
2022-08-23T07:00:37.238Z,1012.58
2022-08-23T07:01:47.013Z,1012.60
2022-08-23T07:02:38.142Z,1012.59
2022-08-23T07:03:37.106Z,1012.61
2022-08-23T07:04:37.118Z,1012.56
2022-08-23T07:05:37.083Z,1012.59
2022-08-23T07:06:37.130Z,1012.60
2022-08-23T07:07:37.576Z,1012.55
2022-08-23T07:08:39.978Z,1012.57
2022-08-23T07:09:37.447Z,1012.57
2022-08-23T07:10:37.470Z,1012.57
2022-08-23T07:11:37.439Z,1012.60
2022-08-23T07:12:37.003Z,1012.58
2022-08-23T07:13:36.991Z,1012.56
2022-08-23T07:14:38.160Z,1012.59
2022-08-23T07:15:36.969Z,1012.59
2022-08-23T07:16:37.084Z,1012.61
2022-08-23T07:17:36.971Z,1012.66
2022-08-23T07:18:36.959Z,1012.66
2022-08-23T07:19:37.682Z,1012.66
2022-08-23T07:20:36.945Z,1012.67
2022-08-23T07:21:36.894Z,1012.74
2022-08-23T07:22:36.840Z,1012.71
2022-08-23T07:23:36.892Z,1012.68
2022-08-23T07:24:36.894Z,1012.69
2022-08-23T07:25:36.825Z,1012.65
2022-08-23T07:26:36.887Z,1012.67
2022-08-23T07:27:36.816Z,1012.66
2022-08-23T07:28:36.796Z,1012.69
2022-08-23T07:29:36.746Z,1012.69
2022-08-23T07:30:40.087Z,1012.72
2022-08-23T07:31:37.792Z,1012.73
2022-08-23T07:32:36.704Z,1012.71
2022-08-23T07:33:36.713Z,1012.72
2022-08-23T07:34:36.699Z,1012.69
2022-08-23T07:35:40.196Z,1012.68
2022-08-23T07:36:36.672Z,1012.66
2022-08-23T07:37:36.630Z,1012.64
2022-08-23T07:38:36.638Z,1012.69
2022-08-23T07:39:36.686Z,1012.67
2022-08-23T07:40:39.150Z,1012.68
2022-08-23T07:41:36.670Z,1012.67
2022-08-23T07:42:36.627Z,1012.69
2022-08-23T07:43:36.592Z,1012.72
2022-08-23T07:44:36.576Z,1012.69
2022-08-23T07:45:36.524Z,1012.74
2022-08-23T07:46:36.612Z,1012.74
2022-08-23T07:47:36.507Z,1012.71
2022-08-23T07:48:53.475Z,1012.79
2022-08-23T07:49:38.393Z,1012.76
2022-08-23T07:50:36.537Z,1012.80
2022-08-23T07:51:36.507Z,1012.74
2022-08-23T07:52:36.454Z,1012.76
2022-08-23T07:53:37.969Z,1012.77
2022-08-23T07:54:36.493Z,1012.81
2022-08-23T07:55:36.404Z,1012.76
2022-08-23T07:56:36.402Z,1012.82
2022-08-23T07:57:36.420Z,1012.80
2022-08-23T07:58:36.934Z,1012.84
2022-08-23T07:59:36.413Z,1012.86
2022-08-23T08:00:36.365Z,1012.80
2022-08-23T08:01:36.520Z,1012.82
2022-08-23T08:02:36.429Z,1012.84
2022-08-23T08:03:37.578Z,1012.86
2022-08-23T08:04:37.457Z,1012.87
2022-08-23T08:05:36.586Z,1012.88
2022-08-23T08:06:36.327Z,1012.82
2022-08-23T08:07:37.608Z,1012.87
2022-08-23T08:08:36.248Z,1012.85
2022-08-23T08:09:36.230Z,1012.89
2022-08-23T08:10:36.229Z,1012.83
2022-08-23T08:11:36.293Z,1012.87
2022-08-23T08:12:36.278Z,1012.84
2022-08-23T08:13:36.236Z,1012.86
2022-08-23T08:14:36.264Z,1012.86
2022-08-23T08:15:37.427Z,1012.93
2022-08-23T08:16:36.456Z,1012.93
2022-08-23T08:17:36.432Z,1012.94
2022-08-23T08:18:36.150Z,1012.92
2022-08-23T08:19:36.148Z,1012.93
2022-08-23T08:20:36.102Z,1012.93
2022-08-23T08:21:36.454Z,1012.89
2022-08-23T08:22:37.250Z,1012.94
2022-08-23T08:23:36.050Z,1012.94
2022-08-23T08:24:36.033Z,1012.88
2022-08-23T08:25:36.055Z,1012.91
2022-08-23T08:26:36.881Z,1012.87
2022-08-23T08:27:36.786Z,1012.89
2022-08-23T08:28:36.095Z,1012.87
2022-08-23T08:29:36.045Z,1012.93
2022-08-23T08:30:35.994Z,1012.91
2022-08-23T08:31:36.132Z,1012.89
2022-08-23T08:32:35.952Z,1012.95
2022-08-23T08:33:36.019Z,1012.88
2022-08-23T08:34:35.918Z,1012.90
2022-08-23T08:35:35.906Z,1012.89
2022-08-23T08:36:35.986Z,1012.88
2022-08-23T08:37:35.944Z,1012.84
2022-08-23T08:38:38.727Z,1012.87
2022-08-23T08:39:36.002Z,1012.94
2022-08-23T08:40:35.982Z,1012.92
2022-08-23T08:41:35.829Z,1012.89
2022-08-23T08:42:35.873Z,1012.90
2022-08-23T08:43:35.880Z,1012.92
2022-08-23T08:44:35.820Z,1012.94
2022-08-23T08:45:35.790Z,1012.95
2022-08-23T08:46:35.821Z,1012.84
2022-08-23T08:47:35.751Z,1012.84
2022-08-23T08:48:35.765Z,1012.82
2022-08-23T08:49:37.923Z,1012.84
2022-08-23T08:50:35.881Z,1012.81
2022-08-23T08:51:35.726Z,1012.84
2022-08-23T08:52:36.838Z,1012.88
2022-08-23T08:53:35.704Z,1012.89
2022-08-23T08:54:35.640Z,1012.87
2022-08-23T08:55:35.644Z,1012.93
2022-08-23T08:56:35.916Z,1012.94
2022-08-23T08:57:35.622Z,1012.89
2022-08-23T08:58:35.762Z,1012.97
2022-08-23T08:59:35.606Z,1012.95
2022-08-23T09:01:06.905Z,1012.93
2022-08-23T09:01:36.136Z,1012.94
2022-08-23T09:02:35.688Z,1012.98
2022-08-23T09:03:52.356Z,1012.91
2022-08-23T09:04:35.530Z,1012.93
2022-08-23T09:05:35.567Z,1012.86
2022-08-23T09:06:35.498Z,1012.91
2022-08-23T09:07:35.769Z,1012.91
2022-08-23T09:08:35.489Z,1012.92
2022-08-23T09:09:35.635Z,1012.92
2022-08-23T09:10:35.604Z,1012.92
2022-08-23T09:11:35.440Z,1012.94
2022-08-23T09:12:36.279Z,1012.93
2022-08-23T09:13:35.541Z,1012.94
2022-08-23T09:14:35.542Z,1012.89
2022-08-23T09:15:35.467Z,1012.85
2022-08-23T09:16:35.391Z,1012.81
2022-08-23T09:17:35.445Z,1012.82
2022-08-23T09:18:35.374Z,1012.83
2022-08-23T09:19:35.354Z,1012.79
2022-08-23T09:20:35.366Z,1012.81
2022-08-23T09:21:35.359Z,1012.82
2022-08-23T09:22:36.107Z,1012.83
2022-08-23T09:23:35.294Z,1012.82
2022-08-23T09:24:35.464Z,1012.79
2022-08-23T09:25:35.449Z,1012.80
2022-08-23T09:26:35.237Z,1012.84
2022-08-23T09:27:35.447Z,1012.85
2022-08-23T09:28:36.045Z,1012.85
2022-08-23T09:29:35.447Z,1012.89
2022-08-23T09:30:35.181Z,1012.86
2022-08-23T09:31:36.025Z,1012.89
2022-08-23T09:32:35.157Z,1012.89
2022-08-23T09:33:35.246Z,1012.90
2022-08-23T09:34:36.104Z,1012.89
2022-08-23T09:35:35.128Z,1012.89
2022-08-23T09:36:35.117Z,1012.88
2022-08-23T09:37:35.083Z,1012.89
2022-08-23T09:38:35.161Z,1012.88
2022-08-23T09:39:35.194Z,1012.86
2022-08-23T09:40:35.070Z,1012.83
2022-08-23T09:41:35.152Z,1012.80
2022-08-23T09:42:36.236Z,1012.82
2022-08-23T09:43:35.547Z,1012.74
2022-08-23T09:44:35.011Z,1012.75
2022-08-23T09:45:35.754Z,1012.73
2022-08-23T09:46:35.022Z,1012.69
2022-08-23T09:47:37.824Z,1012.71
2022-08-23T09:48:37.207Z,1012.73
2022-08-23T09:49:35.050Z,1012.66
2022-08-23T09:50:34.917Z,1012.74
2022-08-23T09:51:35.024Z,1012.73
2022-08-23T09:52:35.364Z,1012.72
2022-08-23T09:53:35.203Z,1012.73
2022-08-23T09:54:36.674Z,1012.70
2022-08-23T09:55:35.013Z,1012.77
2022-08-23T09:56:34.879Z,1012.76
2022-08-23T09:57:34.842Z,1012.75
2022-08-23T09:58:35.005Z,1012.77
2022-08-23T09:59:35.638Z,1012.69
2022-08-23T10:00:34.826Z,1012.72
2022-08-23T10:01:38.913Z,1012.70
2022-08-23T10:02:34.814Z,1012.66
2022-08-23T10:03:35.759Z,1012.64
2022-08-23T10:04:34.831Z,1012.70
2022-08-23T10:05:34.815Z,1012.68
2022-08-23T10:06:34.728Z,1012.67
2022-08-23T10:07:36.175Z,1012.66
2022-08-23T10:08:38.519Z,1012.61
2022-08-23T10:09:36.237Z,1012.64
2022-08-23T10:10:34.765Z,1012.63
2022-08-23T10:11:35.233Z,1012.62
2022-08-23T10:12:35.245Z,1012.73
2022-08-23T10:13:34.856Z,1012.70
2022-08-23T10:14:34.656Z,1012.69
2022-08-23T10:15:36.294Z,1012.68
2022-08-23T10:16:35.276Z,1012.75
2022-08-23T10:17:35.255Z,1012.70
2022-08-23T10:18:34.643Z,1012.72
2022-08-23T10:19:34.645Z,1012.70
2022-08-23T10:20:34.577Z,1012.76
2022-08-23T10:21:34.548Z,1012.71
2022-08-23T10:22:34.568Z,1012.69
2022-08-23T10:23:34.653Z,1012.68
2022-08-23T10:24:34.486Z,1012.66
2022-08-23T10:25:34.969Z,1012.69
2022-08-23T10:26:34.476Z,1012.64
2022-08-23T10:27:34.460Z,1012.70
2022-08-23T10:28:35.701Z,1012.65
2022-08-23T10:29:36.879Z,1012.60
2022-08-23T10:30:34.465Z,1012.51
2022-08-23T10:31:34.491Z,1012.58
2022-08-23T10:32:34.399Z,1012.57
2022-08-23T10:33:34.427Z,1012.55
2022-08-23T10:34:34.355Z,1012.49
2022-08-23T10:35:34.338Z,1012.54
2022-08-23T10:36:34.447Z,1012.48
2022-08-23T10:37:34.322Z,1012.49
2022-08-23T10:38:34.337Z,1012.48
2022-08-23T10:39:34.314Z,1012.46
2022-08-23T10:40:34.341Z,1012.48
2022-08-23T10:41:34.291Z,1012.42
2022-08-23T10:42:34.266Z,1012.44
2022-08-23T10:43:34.271Z,1012.46
2022-08-23T10:44:34.254Z,1012.49
2022-08-23T10:45:34.244Z,1012.52
2022-08-23T10:46:34.298Z,1012.51
2022-08-23T10:47:34.234Z,1012.46
2022-08-23T10:48:34.256Z,1012.43
2022-08-23T10:49:34.183Z,1012.46
2022-08-23T10:50:35.344Z,1012.46
2022-08-23T10:51:34.845Z,1012.44
2022-08-23T10:52:35.158Z,1012.50
2022-08-23T10:53:34.115Z,1012.46
2022-08-23T10:54:34.175Z,1012.50
2022-08-23T10:55:34.111Z,1012.52
2022-08-23T10:56:34.219Z,1012.46
2022-08-23T10:57:34.059Z,1012.49
2022-08-23T10:58:42.909Z,1012.50
2022-08-23T10:59:34.233Z,1012.40
2022-08-23T11:00:34.042Z,1012.47
2022-08-23T11:01:34.192Z,1012.48
2022-08-23T11:02:34.199Z,1012.38
2022-08-23T11:03:33.988Z,1012.42
2022-08-23T11:04:34.362Z,1012.44
2022-08-23T11:05:33.990Z,1012.39
2022-08-23T11:06:34.011Z,1012.36
2022-08-23T11:07:34.733Z,1012.38
2022-08-23T11:08:35.158Z,1012.23
2022-08-23T11:09:33.911Z,1012.34
2022-08-23T11:10:34.967Z,1012.31
2022-08-23T11:11:34.865Z,1012.30
2022-08-23T11:12:33.942Z,1012.34
2022-08-23T11:13:33.945Z,1012.32
2022-08-23T11:14:33.845Z,1012.35
2022-08-23T11:15:33.978Z,1012.35
2022-08-23T11:16:34.899Z,1012.32
2022-08-23T11:17:33.877Z,1012.31
2022-08-23T11:18:33.910Z,1012.31
2022-08-23T11:19:34.471Z,1012.28
2022-08-23T11:20:33.779Z,1012.34
2022-08-23T11:21:33.817Z,1012.32
2022-08-23T11:22:34.425Z,1012.34
2022-08-23T11:23:35.191Z,1012.39
2022-08-23T11:24:33.997Z,1012.33
2022-08-23T11:25:33.718Z,1012.35
2022-08-23T11:26:33.710Z,1012.33
2022-08-23T11:27:33.937Z,1012.27
2022-08-23T11:28:33.831Z,1012.33
2022-08-23T11:29:33.770Z,1012.25
2022-08-23T11:30:33.819Z,1012.34
2022-08-23T11:31:33.687Z,1012.29
2022-08-23T11:32:33.755Z,1012.32
2022-08-23T11:33:33.662Z,1012.30
2022-08-23T11:34:33.634Z,1012.28
2022-08-23T11:35:34.005Z,1012.31
2022-08-23T11:36:34.517Z,1012.30
2022-08-23T11:37:34.434Z,1012.38
2022-08-23T11:38:35.011Z,1012.29
2022-08-23T11:39:33.594Z,1012.29
2022-08-23T11:40:34.192Z,1012.30
2022-08-23T11:41:33.507Z,1012.27
2022-08-23T11:42:34.450Z,1012.27
2022-08-23T11:43:34.450Z,1012.32
2022-08-23T11:44:34.112Z,1012.29
2022-08-23T11:45:33.635Z,1012.35
2022-08-23T11:46:33.508Z,1012.32
2022-08-23T11:47:33.454Z,1012.33
2022-08-23T11:48:33.447Z,1012.33
2022-08-23T11:49:33.455Z,1012.35
2022-08-23T11:50:33.398Z,1012.31
2022-08-23T11:51:33.724Z,1012.36
2022-08-23T11:52:34.123Z,1012.35
2022-08-23T11:53:33.413Z,1012.31
2022-08-23T11:54:33.392Z,1012.32
2022-08-23T11:55:33.315Z,1012.28
2022-08-23T11:56:33.336Z,1012.31
2022-08-23T11:57:33.367Z,1012.30
2022-08-23T11:58:33.295Z,1012.31
2022-08-23T11:59:33.312Z,1012.27
2022-08-23T12:00:33.369Z,1012.31
2022-08-23T12:01:33.288Z,1012.25
2022-08-23T12:02:33.517Z,1012.28
2022-08-23T12:03:33.345Z,1012.24
2022-08-23T12:04:33.226Z,1012.21
2022-08-23T12:05:33.326Z,1012.26